Time;durP1;ratioP1;P1;durP2;ratioP2;P2;SDS_P1;SDS_P2;PMS_P1;PMS_P2;Temp;Humidity;BMP_temperature;BMP_pressure;BME280_temperature;BME280_humidity;BME280_pressure;Samples;Min_cycle;Max_cycle;Signal;HPM_P1;HPM_P2
2023/04/27 00:01:56;;;;;;;3.50;2.13;;;;;;;4.68;100.00;98896.63;5138944;28;20062;-67
2023/04/27 00:04:22;;;;;;;3.83;1.70;;;;;;;4.91;100.00;98883.50;5138740;27;20437;-67
2023/04/27 00:06:48;;;;;;;2.03;1.83;;;;;;;4.77;100.00;98872.94;5138883;27;20348;-67
2023/04/27 00:09:14;;;;;;;2.72;1.90;;;;;;;4.87;100.00;98855.44;5138542;27;20051;-67
2023/04/27 00:11:40;;;;;;;2.33;2.05;;;;;;;4.86;100.00;98864.69;5138934;28;20043;-67
2023/04/27 00:14:06;;;;;;;2.42;1.85;;;;;;;4.77;100.00;98856.63;5138554;28;20058;-67
2023/04/27 00:16:33;;;;;;;2.88;1.80;;;;;;;4.60;100.00;98873.88;5138855;28;20301;-67
2023/04/27 00:19:00;;;;;;;2.85;2.17;;;;;;;4.65;100.00;98883.72;5138324;28;20444;-67
2023/04/27 00:21:26;;;;;;;3.78;1.90;;;;;;;4.60;100.00;98882.00;5138294;28;20142;-67
2023/04/27 00:23:53;;;;;;;2.40;2.03;;;;;;;4.37;100.00;98865.25;5138585;27;20387;-67
2023/04/27 00:26:21;;;;;;;5.45;2.88;;;;;;;4.42;100.00;98858.84;5138431;28;20384;-68
2023/04/27 00:28:47;;;;;;;2.65;2.22;;;;;;;4.56;100.00;98870.22;5138264;27;20401;-68
2023/04/27 00:31:13;;;;;;;2.10;1.85;;;;;;;4.56;100.00;98867.50;5138262;28;20066;-67
2023/04/27 00:33:39;;;;;;;3.92;2.50;;;;;;;4.84;100.00;98870.47;5138435;27;20051;-67
2023/04/27 00:36:06;;;;;;;5.43;2.65;;;;;;;4.90;100.00;98890.06;5138113;27;20142;-67
2023/04/27 00:38:32;;;;;;;4.38;2.33;;;;;;;4.63;100.00;98896.81;5138348;27;20142;-67
2023/04/27 00:41:02;;;;;;;5.20;2.80;;;;;;;4.61;100.00;98897.16;5138103;27;20143;-67
2023/04/27 00:43:27;;;;;;;4.45;2.88;;;;;;;4.59;100.00;98912.97;5137295;27;20180;-67
2023/04/27 00:45:53;;;;;;;7.63;3.25;;;;;;;4.54;100.00;98918.63;5137946;28;20078;-67
2023/04/27 00:48:20;;;;;;;9.38;3.47;;;;;;;4.45;100.00;98915.16;5138331;28;20112;-67
2023/04/27 00:50:47;;;;;;;10.07;3.13;;;;;;;4.50;100.00;98912.28;5138058;27;20043;-67
2023/04/27 00:53:13;;;;;;;8.73;2.78;;;;;;;4.51;100.00;98919.28;5137820;27;20191;-67
2023/04/27 00:55:39;;;;;;;10.45;3.78;;;;;;;4.54;100.00;98901.56;5138056;28;20188;-67
2023/04/27 00:58:05;;;;;;;10.65;4.13;;;;;;;4.60;100.00;98908.34;5137946;27;20099;-67
2023/04/27 01:00:32;;;;;;;15.45;3.83;;;;;;;4.48;100.00;98915.31;5138107;27;20047;-67
2023/04/27 01:02:58;;;;;;;8.35;4.15;;;;;;;4.23;100.00;98921.69;5137685;28;20484;-67
2023/04/27 01:05:25;;;;;;;12.60;4.55;;;;;;;4.55;100.00;98928.34;5137979;27;20137;-67
2023/04/27 01:07:51;;;;;;;11.52;3.83;;;;;;;4.43;100.00;98930.97;5137673;28;20129;-67
2023/04/27 01:10:17;;;;;;;9.85;3.70;;;;;;;4.50;100.00;98925.84;5137924;27;20496;-67
2023/04/27 01:12:43;;;;;;;7.78;4.63;;;;;;;4.31;100.00;98941.78;5137529;28;20056;-67
2023/04/27 01:15:10;;;;;;;11.07;3.97;;;;;;;4.38;100.00;98939.34;5137888;27;20394;-67
2023/04/27 01:17:36;;;;;;;11.30;3.85;;;;;;;4.59;100.00;98929.28;5137358;27;20054;-67
2023/04/27 01:20:06;;;;;;;7.88;3.95;;;;;;;4.47;100.00;98921.88;5137693;28;20129;-67
2023/04/27 01:22:32;;;;;;;10.95;5.43;;;;;;;4.54;100.00;98915.91;5137787;28;20115;-67
2023/04/27 01:24:58;;;;;;;8.65;4.63;;;;;;;4.68;100.00;98913.72;5137522;27;20048;-67
2023/04/27 01:27:25;;;;;;;12.80;4.70;;;;;;;4.59;100.00;98917.63;5137653;27;20057;-67
2023/04/27 01:29:51;;;;;;;8.82;4.40;;;;;;;4.53;100.00;98910.78;5137332;28;20055;-67
2023/04/27 01:32:17;;;;;;;7.80;4.10;;;;;;;4.49;100.00;98921.53;5137722;27;20106;-66
2023/04/27 01:34:42;;;;;;;11.35;4.45;;;;;;;4.59;100.00;98925.78;5137326;28;20051;-67
2023/04/27 01:37:08;;;;;;;10.85;4.95;;;;;;;4.82;100.00;98939.81;5137617;27;20051;-67
2023/04/27 01:39:35;;;;;;;8.18;4.28;;;;;;;4.88;100.00;98952.88;5137220;28;20373;-67
2023/04/27 01:42:02;;;;;;;9.85;4.50;;;;;;;4.79;100.00;98948.63;5137582;27;20413;-67
2023/04/27 01:44:28;;;;;;;15.77;4.63;;;;;;;4.80;100.00;98944.78;5137065;28;20051;-66
2023/04/27 01:46:54;;;;;;;11.68;4.78;;;;;;;4.88;100.00;98952.06;5137571;27;20054;-66
2023/04/27 01:49:20;;;;;;;11.40;4.10;;;;;;;4.78;100.00;98947.03;5137201;27;20057;-67
2023/04/27 01:51:46;;;;;;;10.13;5.35;;;;;;;4.85;100.00;98958.16;5137240;28;20055;-67
2023/04/27 01:54:12;;;;;;;11.55;4.63;;;;;;;4.85;100.00;98950.81;5137401;27;20107;-67
2023/04/27 01:56:38;;;;;;;10.52;4.47;;;;;;;4.68;100.00;98954.44;5140732;28;20168;-67
2023/04/27 01:59:04;;;;;;;10.73;4.22;;;;;;;4.73;100.00;98958.88;5140972;28;20053;-67
2023/04/27 02:01:30;;;;;;;7.35;4.50;;;;;;;4.83;100.00;98953.06;5140739;28;20134;-67
2023/04/27 02:03:56;;;;;;;9.98;4.47;;;;;;;4.78;100.00;98958.69;5140888;28;20073;-67
2023/04/27 02:06:22;;;;;;;13.75;4.38;;;;;;;4.66;100.00;98953.97;5140498;27;20375;-67
2023/04/27 02:08:48;;;;;;;11.32;5.18;;;;;;;4.86;100.00;98957.81;5140882;28;20051;-67
2023/04/27 02:11:14;;;;;;;11.63;4.63;;;;;;;4.79;100.00;98957.56;5140274;28;20411;-67
2023/04/27 02:13:40;;;;;;;13.02;4.70;;;;;;;4.67;100.00;98960.22;5140620;27;20078;-67
2023/04/27 02:16:07;;;;;;;15.35;6.63;;;;;;;4.77;100.00;98954.41;5140208;27;20068;-67
2023/04/27 02:18:34;;;;;;;13.18;5.30;;;;;;;4.84;100.00;98949.22;5140547;28;20323;-67
2023/04/27 02:21:00;;;;;;;10.55;5.03;;;;;;;4.87;100.00;98943.13;5140567;27;20043;-67
2023/04/27 02:23:26;;;;;;;10.55;4.82;;;;;;;5.05;100.00;98949.19;5140397;28;20051;-67
2023/04/27 02:25:52;;;;;;;8.77;5.18;;;;;;;5.21;100.00;98954.03;5140548;27;20051;-67
2023/04/27 02:28:18;;;;;;;11.77;5.55;;;;;;;5.19;100.00;98963.28;5140313;28;20047;-67
2023/04/27 02:30:44;;;;;;;11.70;4.90;;;;;;;4.94;100.00;98959.69;5140431;27;20051;-67
2023/04/27 02:33:11;;;;;;;13.00;4.75;;;;;;;4.99;100.00;98949.75;5140168;27;20470;-67
2023/04/27 02:35:36;;;;;;;17.80;5.60;;;;;;;5.06;100.00;98960.88;5140008;27;20077;-66
2023/04/27 02:38:02;;;;;;;15.18;5.55;;;;;;;5.19;100.00;98960.56;5139939;28;20404;-67
2023/04/27 02:40:28;;;;;;;11.48;5.68;;;;;;;5.29;100.00;98964.81;5140581;27;20055;-67
2023/04/27 02:42:54;;;;;;;10.23;5.28;;;;;;;5.31;100.00;98972.66;5139921;27;20047;-66
2023/04/27 02:45:20;;;;;;;10.55;5.07;;;;;;;5.21;100.00;98979.28;5140327;27;20075;-67
2023/04/27 02:47:46;;;;;;;12.38;5.22;;;;;;;5.15;100.00;98977.88;5139757;28;20504;-67
2023/04/27 02:50:13;;;;;;;10.82;4.50;;;;;;;4.80;100.00;98980.06;5139663;28;20051;-67
2023/04/27 02:52:39;;;;;;;11.95;5.60;;;;;;;5.02;100.00;98966.16;5140123;27;20207;-67
2023/04/27 02:55:06;;;;;;;11.60;4.95;;;;;;;5.10;100.00;98962.59;5139902;28;20071;-67
2023/04/27 02:57:31;;;;;;;8.15;4.15;;;;;;;5.13;100.00;98978.25;5140005;27;20138;-67
2023/04/27 02:59:57;;;;;;;7.75;4.38;;;;;;;4.83;100.00;98977.53;5139878;27;20141;-67
2023/04/27 03:02:23;;;;;;;10.00;4.75;;;;;;;5.11;100.00;98963.38;5139987;27;20137;-67
2023/04/27 03:04:52;;;;;;;10.82;4.97;;;;;;;5.23;100.00;98973.50;5139569;27;20417;-67
2023/04/27 03:07:19;;;;;;;8.45;4.28;;;;;;;5.23;100.00;98977.03;5139033;27;20051;-67
2023/04/27 03:09:45;;;;;;;9.48;4.85;;;;;;;4.92;100.00;98978.22;5139424;28;20051;-67
2023/04/27 03:12:11;;;;;;;8.68;4.25;;;;;;;4.90;100.00;98982.44;5140019;27;20384;-67
2023/04/27 03:14:37;;;;;;;10.23;4.82;;;;;;;5.16;100.00;98984.91;5139246;27;20119;-67
2023/04/27 03:17:03;;;;;;;7.72;4.20;;;;;;;5.13;100.00;98980.97;5139338;27;20055;-67
2023/04/27 03:19:29;;;;;;;7.53;4.10;;;;;;;4.86;100.00;98990.41;5139643;27;20074;-67
2023/04/27 03:21:55;;;;;;;10.13;3.67;;;;;;;4.92;100.00;98969.28;5139486;28;20085;-67
2023/04/27 03:24:24;;;;;;;4.40;3.30;;;;;;;4.84;100.00;98968.25;5139340;28;20424;-67
2023/04/27 03:26:50;;;;;;;11.88;4.80;;;;;;;4.87;100.00;98972.22;5139400;28;20054;-67
2023/04/27 03:29:16;;;;;;;7.45;3.85;;;;;;;4.78;100.00;98987.78;5139321;27;20396;-67
2023/04/27 03:31:42;;;;;;;5.88;3.38;;;;;;;5.05;100.00;98981.81;5139002;28;20053;-67
2023/04/27 03:34:08;;;;;;;8.88;3.30;;;;;;;4.89;100.00;98995.19;5139542;28;20047;-67
2023/04/27 03:36:34;;;;;;;9.45;3.58;;;;;;;4.86;100.00;98998.56;5138916;27;20160;-67
2023/04/27 03:39:00;;;;;;;11.70;3.65;;;;;;;5.01;100.00;99005.34;5139561;27;20134;-66
2023/04/27 03:41:26;;;;;;;5.95;3.45;;;;;;;4.99;100.00;99009.50;5138961;28;20051;-67
2023/04/27 03:43:52;;;;;;;4.07;3.10;;;;;;;4.97;100.00;99012.56;5139426;27;20405;-67
2023/04/27 03:46:18;;;;;;;4.40;3.83;;;;;;;5.12;100.00;99013.88;5138897;27;20051;-67
2023/04/27 03:48:45;;;;;;;7.13;3.78;;;;;;;4.82;100.00;99021.28;5139103;28;20111;-67
2023/04/27 03:51:12;;;;;;;4.57;2.70;;;;;;;4.79;100.00;99024.66;5139060;27;20151;-67
2023/04/27 03:53:38;;;;;;;9.43;4.55;;;;;;;4.97;100.00;99022.66;5138722;27;20481;-67
2023/04/27 03:56:04;;;;;;;4.93;3.83;;;;;;;4.98;100.00;99022.31;5139100;27;20100;-67
2023/04/27 03:58:31;;;;;;;5.53;4.15;;;;;;;5.10;100.00;99035.97;5138822;28;20051;-67
2023/04/27 04:00:57;;;;;;;4.47;3.38;;;;;;;5.16;100.00;99042.78;5139032;27;20059;-67
2023/04/27 04:03:23;;;;;;;5.93;3.63;;;;;;;5.00;100.00;99060.81;5138546;28;20420;-67
2023/04/27 04:05:49;;;;;;;6.97;3.80;;;;;;;5.16;100.00;99063.72;5138826;27;20057;-67
2023/04/27 04:08:15;;;;;;;8.95;3.75;;;;;;;5.08;100.00;99070.03;5138524;28;20047;-66
2023/04/27 04:10:41;;;;;;;5.95;3.58;;;;;;;5.12;100.00;99074.47;5138966;27;20051;-67
2023/04/27 04:13:07;;;;;;;6.90;4.40;;;;;;;5.11;100.00;99077.50;5138376;27;20083;-66
2023/04/27 04:15:33;;;;;;;9.48;3.40;;;;;;;5.34;100.00;99083.44;5138813;28;20219;-67
2023/04/27 04:17:59;;;;;;;4.28;3.50;;;;;;;5.43;100.00;99087.66;5138583;27;20043;-66
2023/04/27 04:20:26;;;;;;;5.97;4.13;;;;;;;5.02;100.00;99091.16;5138574;28;20137;-66
2023/04/27 04:22:51;;;;;;;4.53;3.38;;;;;;;5.02;100.00;99091.16;5138380;28;20478;-67
2023/04/27 04:25:19;;;;;;;5.85;3.80;;;;;;;5.24;100.00;99081.09;5138364;28;20059;-66
2023/04/27 04:27:46;;;;;;;5.88;3.70;;;;;;;5.17;100.00;99082.44;5138366;28;20079;-67
2023/04/27 04:30:13;;;;;;;6.45;3.97;;;;;;;5.04;100.00;99077.25;5138064;28;20066;-67
2023/04/27 04:33:18;;;;;;;8.73;3.50;;;;;;;5.10;100.00;99075.94;5138514;27;20328;-67
2023/04/27 04:35:45;;;;;;;6.30;3.85;;;;;;;4.97;100.00;99080.50;5137976;27;20066;-67
2023/04/27 04:38:11;;;;;;;5.90;4.05;;;;;;;5.30;100.00;99077.03;5138219;28;20051;-67
2023/04/27 04:40:37;;;;;;;6.95;4.32;;;;;;;5.12;100.00;99084.53;5138268;27;20043;-66
2023/04/27 04:43:03;;;;;;;7.93;4.03;;;;;;;5.25;100.00;99088.13;5138033;28;20142;-66
2023/04/27 04:45:29;;;;;;;11.85;4.10;;;;;;;5.22;100.00;99094.22;5138040;27;20062;-67
2023/04/27 04:47:55;;;;;;;6.18;3.75;;;;;;;5.31;100.00;99090.31;5137742;28;20051;-67
2023/04/27 04:50:22;;;;;;;5.05;3.60;;;;;;;5.28;100.00;99092.91;5137735;27;20047;-66
2023/04/27 04:52:48;;;;;;;8.85;3.33;;;;;;;5.24;100.00;99097.41;5137806;28;20058;-67
2023/04/27 04:55:15;;;;;;;7.15;3.72;;;;;;;5.37;100.00;99108.03;5138150;27;20142;-66
2023/04/27 04:57:41;;;;;;;10.27;3.47;;;;;;;5.13;100.00;99097.81;5137604;28;20134;-67
2023/04/27 05:00:10;;;;;;;11.13;4.50;;;;;;;5.39;100.00;99102.25;5137897;27;20057;-67
2023/04/27 05:02:36;;;;;;;5.97;3.03;;;;;;;5.35;100.00;99104.84;5137532;27;20047;-67
2023/04/27 05:05:03;;;;;;;9.20;3.58;;;;;;;5.58;100.00;99108.00;5137657;27;20138;-67
2023/04/27 05:07:29;;;;;;;7.95;3.42;;;;;;;5.49;100.00;99101.03;5137555;27;20058;-66
2023/04/27 05:09:56;;;;;;;12.02;3.65;;;;;;;5.27;100.00;99092.09;5137550;28;20047;-68
2023/04/27 05:12:22;;;;;;;8.57;3.05;;;;;;;5.41;100.00;99091.84;5137666;27;20046;-69
2023/04/27 05:14:48;;;;;;;13.60;3.65;;;;;;;5.35;100.00;99085.81;5137683;27;20062;-68
2023/04/27 05:17:14;;;;;;;9.77;3.63;;;;;;;5.45;100.00;99081.09;5137401;27;20109;-67
2023/04/27 05:19:40;;;;;;;8.68;2.85;;;;;;;5.38;100.00;99081.63;5137404;28;20055;-65
2023/04/27 05:22:06;;;;;;;5.93;3.55;;;;;;;5.37;100.00;99093.63;5137631;27;20126;-67
2023/04/27 05:24:32;;;;;;;4.70;2.90;;;;;;;5.03;100.00;99070.19;5137263;28;20133;-67
2023/04/27 05:26:59;;;;;;;11.77;3.78;;;;;;;5.09;100.00;99094.13;5137708;27;20145;-67
2023/04/27 05:29:26;;;;;;;6.78;3.28;;;;;;;5.23;100.00;99095.81;5136615;27;20141;-67
2023/04/27 05:31:52;;;;;;;7.68;3.53;;;;;;;5.25;100.00;99107.16;5137607;27;20147;-67
2023/04/27 05:34:18;;;;;;;11.75;4.05;;;;;;;5.39;100.00;99100.31;5137011;28;20141;-67
2023/04/27 05:36:45;;;;;;;8.43;3.10;;;;;;;5.43;100.00;99106.69;5137369;27;20133;-67
2023/04/27 05:39:11;;;;;;;12.50;3.83;;;;;;;5.28;100.00;99106.50;5137155;27;20086;-68
2023/04/27 05:41:38;;;;;;;8.23;4.07;;;;;;;5.48;100.00;99107.63;5137189;27;20051;-68
2023/04/27 05:44:05;;;;;;;8.30;3.33;;;;;;;5.49;100.00;99107.28;5137137;28;20477;-67
2023/04/27 05:46:31;;;;;;;8.73;3.92;;;;;;;5.92;100.00;99099.88;5137052;27;20386;-67
2023/04/27 05:48:57;;;;;;;4.25;3.03;;;;;;;5.93;100.00;99093.31;5137317;27;20047;-68
2023/04/27 05:51:24;;;;;;;10.63;3.00;;;;;;;5.90;100.00;99073.00;5136685;28;20051;-67
2023/04/27 05:53:50;;;;;;;10.55;3.22;;;;;;;5.99;100.00;99051.94;5137336;28;20054;-67
2023/04/27 05:56:16;;;;;;;9.18;3.30;;;;;;;5.83;100.00;99024.59;5136828;28;20078;-68
2023/04/27 05:58:42;;;;;;;9.15;3.55;;;;;;;6.03;100.00;99014.78;5137242;27;20047;-68
2023/04/27 06:01:08;;;;;;;5.20;2.80;;;;;;;6.02;100.00;98969.66;5136651;28;20054;-68
2023/04/27 06:03:34;;;;;;;3.45;2.47;;;;;;;6.02;100.00;98926.09;5136677;27;20051;-68
2023/04/27 06:06:01;;;;;;;5.63;2.55;;;;;;;5.87;100.00;98903.06;5136931;27;20047;-68
2023/04/27 06:08:27;;;;;;;8.95;3.20;;;;;;;6.11;100.00;98902.28;5136434;28;20051;-67
2023/04/27 06:10:53;;;;;;;5.47;2.97;;;;;;;6.05;100.00;98830.19;5136786;27;20051;-67
2023/04/27 06:13:19;;;;;;;6.40;2.92;;;;;;;5.85;100.00;98793.00;5136676;27;20047;-68
2023/04/27 06:15:45;;;;;;;6.68;2.97;;;;;;;6.35;100.00;98840.78;5137061;27;20353;-68
2023/04/27 06:18:12;;;;;;;6.32;2.85;;;;;;;6.30;100.00;98806.44;5136491;28;20047;-67
2023/04/27 06:20:38;;;;;;;9.02;3.42;;;;;;;6.30;100.00;98835.59;5136759;27;20055;-68
2023/04/27 06:23:04;;;;;;;9.90;3.75;;;;;;;6.47;100.00;98794.47;5136353;28;20472;-67
2023/04/27 06:25:30;;;;;;;13.02;4.80;;;;;;;6.56;100.00;98745.28;5136796;27;20050;-67
2023/04/27 06:27:57;;;;;;;6.63;3.03;;;;;;;6.56;100.00;98669.84;5136076;28;20062;-67
2023/04/27 06:30:23;;;;;;;11.73;3.30;;;;;;;6.74;100.00;98683.09;5136789;27;20137;-67
2023/04/27 06:32:50;;;;;;;10.38;3.13;;;;;;;7.03;100.00;98639.06;5136488;27;20355;-67
2023/04/27 06:35:17;;;;;;;5.70;2.70;;;;;;;6.73;100.00;98561.63;5136111;27;20054;-68
2023/04/27 06:37:43;;;;;;;15.57;3.10;;;;;;;6.60;100.00;98544.63;5136515;27;20115;-68
2023/04/27 06:40:10;;;;;;;13.90;3.75;;;;;;;6.55;100.00;98520.38;5136381;28;20067;-68
2023/04/27 06:42:36;;;;;;;6.35;3.42;;;;;;;6.69;100.00;98509.81;5138730;27;20043;-68
2023/04/27 06:45:03;;;;;;;5.28;2.47;;;;;;;6.32;100.00;98416.78;5139802;27;20195;-68
2023/04/27 06:47:29;;;;;;;10.23;2.92;;;;;;;6.40;100.00;98519.28;5140044;28;20082;-68
2023/04/27 06:49:55;;;;;;;6.80;3.30;;;;;;;6.57;100.00;98567.13;5139492;28;20047;-66
2023/04/27 06:52:22;;;;;;;6.53;3.22;;;;;;;6.43;100.00;98599.44;5139895;27;20055;-67
2023/04/27 06:54:48;;;;;;;10.98;4.65;;;;;;;6.72;100.00;98701.72;5139526;28;20047;-68
2023/04/27 06:57:14;;;;;;;10.13;3.92;;;;;;;6.66;100.00;98681.31;5139757;27;20441;-66
2023/04/27 06:59:40;;;;;;;13.88;3.75;;;;;;;6.96;100.00;98678.97;5138990;27;20069;-67
2023/04/27 07:02:06;;;;;;;8.63;3.10;;;;;;;6.63;100.00;98625.66;5139574;28;20051;-67
2023/04/27 07:04:32;;;;;;;10.80;3.00;;;;;;;6.90;100.00;98617.69;5141324;28;20046;-67
2023/04/27 07:06:59;;;;;;;10.02;4.47;;;;;;;6.96;100.00;98565.28;5140634;27;20055;-68
2023/04/27 07:09:26;;;;;;;14.13;4.32;;;;;;;6.95;100.00;98611.97;5139640;28;20058;-68
2023/04/27 07:11:52;;;;;;;7.60;3.58;;;;;;;7.13;100.00;98601.47;5139064;28;20104;-67
2023/04/27 07:14:18;;;;;;;11.95;3.97;;;;;;;7.15;100.00;98540.00;5139341;27;20145;-66
2023/04/27 07:16:43;;;;;;;4.82;3.13;;;;;;;7.17;100.00;98521.38;5139192;27;20420;-67
2023/04/27 07:19:09;;;;;;;10.70;3.88;;;;;;;6.87;100.00;98386.81;5139537;27;20086;-65
2023/04/27 07:21:36;;;;;;;12.68;3.17;;;;;;;6.82;100.00;98330.69;5138993;28;20069;-67
2023/04/27 07:24:02;;;;;;;7.07;2.58;;;;;;;6.94;100.00;98278.75;5139547;28;20047;-66
2023/04/27 07:26:30;;;;;;;5.40;2.40;;;;;;;6.93;100.00;98247.22;5138993;27;20063;-67
2023/04/27 07:28:56;;;;;;;14.05;3.42;;;;;;;6.68;100.00;98205.91;5139403;27;20050;-66
2023/04/27 07:31:22;;;;;;;5.13;2.80;;;;;;;6.80;100.00;98222.09;5138930;27;20389;-67
2023/04/27 07:33:48;;;;;;;10.07;2.70;;;;;;;7.04;100.00;98252.84;5139001;28;20051;-67
2023/04/27 07:36:14;;;;;;;15.80;3.10;;;;;;;7.05;100.00;98328.78;5139083;27;20078;-67
2023/04/27 07:38:40;;;;;;;9.32;2.47;;;;;;;7.02;100.00;98263.31;5138663;27;20043;-69
2023/04/27 07:41:07;;;;;;;6.35;2.63;;;;;;;6.93;100.00;98230.06;5138873;28;20055;-67
2023/04/27 07:43:34;;;;;;;7.47;2.95;;;;;;;7.37;100.00;98214.03;5138871;28;20055;-68
2023/04/27 07:46:00;;;;;;;12.70;2.63;;;;;;;7.39;100.00;98156.41;5138939;27;20051;-68
2023/04/27 07:48:27;;;;;;;6.72;2.70;;;;;;;7.52;100.00;98134.00;5138674;27;20051;-66
2023/04/27 07:50:53;;;;;;;13.43;3.45;;;;;;;7.55;100.00;98100.53;5139001;28;20329;-66
2023/04/27 07:53:20;;;;;;;3.03;2.45;;;;;;;7.37;100.00;98050.44;5138125;27;20133;-66
2023/04/27 07:55:45;;;;;;;5.47;2.70;;;;;;;7.57;100.00;98023.03;5138997;28;20047;-64
2023/04/27 07:58:12;;;;;;;7.32;2.78;;;;;;;7.84;100.00;97997.19;5138237;28;20055;-65
2023/04/27 08:00:38;;;;;;;8.10;2.80;;;;;;;7.91;100.00;98005.44;5138623;27;20115;-67
2023/04/27 08:03:04;;;;;;;9.10;2.55;;;;;;;8.06;100.00;97938.13;5138329;27;20051;-67
2023/04/27 08:05:30;;;;;;;5.72;2.40;;;;;;;8.20;100.00;97992.84;5138336;27;20047;-66
2023/04/27 08:07:56;;;;;;;9.25;3.30;;;;;;;8.46;100.00;97961.06;5138679;27;20047;-65
2023/04/27 08:10:22;;;;;;;6.38;3.22;;;;;;;8.59;100.00;97939.69;5138387;27;20047;-65
2023/04/27 08:12:49;;;;;;;9.70;3.58;;;;;;;8.74;100.00;97853.13;5138619;27;20051;-68
2023/04/27 08:15:15;;;;;;;10.30;2.47;;;;;;;8.69;100.00;97796.91;5138333;28;20051;-65
2023/04/27 08:17:42;;;;;;;13.23;2.22;;;;;;;8.49;100.00;97791.75;5138454;27;20047;-67
2023/04/27 08:20:10;;;;;;;8.18;2.72;;;;;;;8.45;100.00;97807.34;5138061;27;20374;-68
2023/04/27 08:22:36;;;;;;;4.47;2.03;;;;;;;8.84;100.00;97803.19;5138504;27;20134;-66
2023/04/27 08:25:03;;;;;;;5.45;2.25;;;;;;;8.86;100.00;97796.19;5138105;28;20378;-66
2023/04/27 08:27:29;;;;;;;5.93;2.20;;;;;;;8.80;100.00;97807.88;5138400;28;20047;-68
2023/04/27 08:29:55;;;;;;;6.70;2.28;;;;;;;8.76;100.00;97799.66;5138147;27;20059;-65
2023/04/27 08:32:21;;;;;;;4.10;2.10;;;;;;;8.45;100.00;97812.81;5138221;28;20134;-68
2023/04/27 08:34:48;;;;;;;5.03;1.88;;;;;;;8.02;100.00;97818.00;5138196;27;20070;-68
2023/04/27 08:37:14;;;;;;;9.77;2.22;;;;;;;8.10;100.00;97812.63;5137959;28;20142;-68
2023/04/27 08:39:40;;;;;;;3.45;1.92;;;;;;;8.01;100.00;97816.44;5138089;27;20086;-68
2023/04/27 08:42:12;;;;;;;4.00;1.75;;;;;;;8.21;100.00;97835.28;5137694;27;20416;-67
2023/04/27 08:44:39;;;;;;;6.40;2.08;;;;;;;7.90;100.00;97837.44;5138183;27;20139;-68
2023/04/27 08:47:05;;;;;;;8.73;2.58;;;;;;;7.64;100.00;97821.25;5137625;28;20051;-66
2023/04/27 08:49:30;;;;;;;8.85;2.38;;;;;;;8.15;100.00;97820.44;5138208;28;20142;-65
2023/04/27 08:51:57;;;;;;;6.68;2.10;;;;;;;8.17;100.00;97827.06;5137672;27;20146;-65
2023/04/27 08:54:23;;;;;;;6.57;2.55;;;;;;;8.31;100.00;97844.69;5138069;27;20059;-66
2023/04/27 08:56:49;;;;;;;3.72;2.10;;;;;;;8.30;100.00;97843.94;5137597;27;20139;-69
2023/04/27 08:59:16;;;;;;;13.35;2.15;;;;;;;8.68;100.00;97845.28;5137539;28;20067;-68
2023/04/27 09:01:47;;;;;;;4.72;2.17;;;;;;;8.66;100.00;97844.09;5137867;27;20055;-68
2023/04/27 09:04:13;;;;;;;7.60;2.50;;;;;;;8.92;100.00;97857.47;5136534;27;20043;-67
2023/04/27 09:06:39;;;;;;;7.07;2.35;;;;;;;9.14;100.00;97876.69;5137738;27;20051;-67
2023/04/27 09:09:06;;;;;;;4.68;2.03;;;;;;;9.22;100.00;97907.56;5137682;27;20306;-69
2023/04/27 09:11:34;;;;;;;6.38;2.10;;;;;;;9.53;100.00;97917.81;5137641;28;20046;-67
2023/04/27 09:14:02;;;;;;;7.40;2.30;;;;;;;10.04;100.00;97892.03;5137248;28;20051;-65
2023/04/27 09:16:29;;;;;;;6.97;2.33;;;;;;;10.11;100.00;97929.59;5137471;28;20107;-68
2023/04/27 09:18:56;;;;;;;8.10;1.90;;;;;;;10.76;100.00;97979.63;5137288;27;20050;-65
2023/04/27 09:21:23;;;;;;;7.38;2.10;;;;;;;11.34;100.00;98101.00;5137669;27;20418;-68
2023/04/27 09:23:50;;;;;;;4.35;1.95;;;;;;;11.24;100.00;98166.47;5137078;27;20047;-68
2023/04/27 09:26:20;;;;;;;7.65;2.10;;;;;;;10.82;100.00;98052.88;5137219;28;20336;-68
2023/04/27 09:28:49;;;;;;;3.95;1.88;;;;;;;11.23;100.00;98092.75;5137435;28;20352;-69
2023/04/27 09:31:15;;;;;;;6.63;2.80;;;;;;;11.26;100.00;98100.19;5136930;28;20051;-68
2023/04/27 09:33:43;;;;;;;10.85;2.10;;;;;;;11.25;100.00;98115.09;5137666;27;20138;-65
2023/04/27 09:36:09;;;;;;;14.25;2.13;;;;;;;11.12;100.00;98160.59;5137288;27;20043;-68
2023/04/27 09:38:35;;;;;;;3.83;1.63;;;;;;;10.89;100.00;98130.81;5137949;27;20046;-65
2023/04/27 09:41:02;;;;;;;5.88;2.08;;;;;;;10.15;100.00;98119.34;5137728;28;20149;-66
2023/04/27 09:43:29;;;;;;;4.78;1.98;;;;;;;9.69;100.00;98072.63;5138315;27;20090;-65
2023/04/27 09:45:56;;;;;;;4.43;2.13;;;;;;;9.76;100.00;98062.50;5138357;28;20058;-67
2023/04/27 09:48:23;;;;;;;4.32;1.73;;;;;;;10.16;100.00;98059.84;5137929;28;20208;-65
2023/04/27 09:50:51;;;;;;;6.75;1.92;;;;;;;9.92;100.00;98138.81;5137161;28;20138;-68
2023/04/27 09:53:19;;;;;;;3.80;1.83;;;;;;;9.84;100.00;98104.38;5137253;28;20159;-67
2023/04/27 09:55:53;;;;;;;8.65;1.73;;;;;;;9.99;100.00;98124.38;5138025;28;20138;-67
2023/04/27 09:58:38;;;;;;;9.23;2.15;;;;;;;9.92;100.00;98097.75;5138622;27;20093;-67
2023/04/27 10:01:13;;;;;;;4.47;2.10;;;;;;;10.22;100.00;98083.75;5139139;27;20087;-67
2023/04/27 10:03:50;;;;;;;7.30;2.67;;;;;;;9.87;100.00;98010.53;5136706;28;20139;-65
2023/04/27 10:06:44;;;;;;;5.22;2.10;;;;;;;10.02;100.00;98052.41;5136987;27;20047;-67
2023/04/27 10:09:11;;;;;;;8.95;2.20;;;;;;;9.94;100.00;98037.16;5137005;28;20061;-67
2023/04/27 10:11:39;;;;;;;5.30;2.17;;;;;;;10.11;100.00;98030.91;5136589;28;20150;-67
2023/04/27 10:14:08;;;;;;;7.32;2.33;;;;;;;9.95;100.00;98087.97;5136752;27;20096;-66
2023/04/27 10:16:42;;;;;;;6.10;1.98;;;;;;;10.16;100.00;98055.16;5138738;27;20051;-68
2023/04/27 10:19:09;;;;;;;4.60;1.80;;;;;;;10.33;100.00;98146.81;5140350;27;20134;-70
2023/04/27 10:21:36;;;;;;;6.20;2.10;;;;;;;10.10;100.00;98147.88;5139994;27;20065;-67
2023/04/27 10:24:07;;;;;;;5.93;2.35;;;;;;;10.50;100.00;98178.16;5140459;27;20397;-68
2023/04/27 10:26:33;;;;;;;4.70;1.90;;;;;;;10.42;100.00;98190.25;5140005;28;20099;-70
2023/04/27 10:29:06;;;;;;;6.85;2.08;;;;;;;10.71;100.00;98202.88;5140455;27;20186;-66
2023/04/27 10:31:32;;;;;;;7.28;2.45;;;;;;;10.45;100.00;98217.69;5140096;28;20047;-64
2023/04/27 10:34:07;;;;;;;6.57;2.35;;;;;;;10.68;100.00;98213.81;5139873;27;20412;-65
2023/04/27 10:36:37;;;;;;;3.50;1.75;;;;;;;10.48;100.00;98214.16;5140090;27;20157;-69
2023/04/27 10:39:12;;;;;;;2.85;1.63;;;;;;;10.75;100.00;98200.13;5139680;28;20431;-66
2023/04/27 10:41:48;;;;;;;6.25;1.70;;;;;;;10.31;100.00;98277.91;5140050;28;20066;-64
2023/04/27 10:44:16;;;;;;;8.70;1.85;;;;;;;10.80;100.00;98222.47;5139575;27;20146;-69
2023/04/27 10:46:51;;;;;;;5.20;1.90;;;;;;;10.87;100.00;98253.81;5140096;27;20423;-66
2023/04/27 10:49:18;;;;;;;4.35;2.40;;;;;;;10.69;100.00;98284.69;5139519;28;20184;-69
2023/04/27 10:51:44;;;;;;;6.60;2.35;;;;;;;10.72;100.00;98277.66;5139830;28;20058;-67
2023/04/27 10:54:11;;;;;;;7.18;2.03;;;;;;;10.91;100.00;98301.22;5139601;27;20139;-65
2023/04/27 10:56:37;;;;;;;4.00;1.30;;;;;;;10.97;100.00;98329.84;5139694;28;20073;-67
2023/04/27 10:59:04;;;;;;;5.00;1.63;;;;;;;11.22;100.00;98346.34;5139611;28;20400;-66
2023/04/27 11:01:31;;;;;;;3.58;1.80;;;;;;;11.08;100.00;98314.19;5139537;28;20138;-66
2023/04/27 11:03:57;;;;;;;3.80;1.50;;;;;;;11.50;100.00;98299.75;5139655;28;20134;-67
2023/04/27 11:06:24;;;;;;;9.07;1.65;;;;;;;11.48;100.00;98350.72;5139328;27;20116;-66
2023/04/27 11:08:50;;;;;;;2.30;1.42;;;;;;;11.42;100.00;98365.97;5139824;28;20084;-68
2023/04/27 11:11:16;;;;;;;4.93;1.90;;;;;;;11.04;100.00;98379.22;5139067;28;20082;-64
2023/04/27 11:13:43;;;;;;;2.65;1.77;;;;;;;11.27;100.00;98381.66;5139312;27;20051;-65
2023/04/27 11:16:10;;;;;;;7.10;1.60;;;;;;;10.91;100.00;98375.25;5139149;28;20453;-67
2023/04/27 11:18:37;;;;;;;2.03;1.67;;;;;;;11.07;100.00;98359.25;5139600;28;20054;-66
2023/04/27 11:21:08;;;;;;;6.93;2.05;;;;;;;10.88;100.00;98389.75;5139368;28;20138;-67
2023/04/27 11:23:36;;;;;;;3.83;1.85;;;;;;;10.75;100.00;98384.59;5139398;28;20097;-67
2023/04/27 11:26:09;;;;;;;3.13;1.63;;;;;;;10.41;100.00;98391.47;5139065;28;20329;-69
2023/04/27 11:28:35;;;;;;;7.38;1.70;;;;;;;10.35;100.00;98353.44;5137796;27;20143;-66